Terminal Aerodrome Forecast
Issued by NWS Blacksburg, VA

Home | Current Version | Previous Version | Text Only | Print | Product List | Glossary On
Versions: 1 2 3 4 5 6 7 8 9 10 11 12 13 14 15 16 17 18 19 20 21 22 23 24
504
FTUS41 KRNK 282329
TAFDAN
TAF
KDAN 282329Z 2900/2924 12004KT P6SM BKN250
     FM290500 VRB03KT P6SM OVC080
     FM290900 03003KT P6SM OVC050
     FM291300 02006KT 6SM -RA OVC035
     FM291800 04006KT 4SM RA BR OVC020=

USA.gov is the U.S. government's official web portal to all federal, state and local government web resources and services.